createdAt,value
2018-12-05T00:02:13.777Z,9.53
2018-12-05T00:04:42.998Z,8.70
2018-12-05T00:07:12.350Z,8.40
2018-12-05T00:09:41.648Z,8.85
2018-12-05T00:12:10.898Z,9.28
2018-12-05T00:14:40.274Z,9.30
2018-12-05T00:17:09.553Z,8.05
2018-12-05T00:19:38.826Z,10.80
2018-12-05T00:22:08.143Z,10.63
2018-12-05T00:24:37.427Z,11.78
2018-12-05T00:27:06.677Z,12.07
2018-12-05T00:29:35.962Z,12.60
2018-12-05T00:32:05.218Z,13.40
2018-12-05T00:34:34.495Z,14.45
2018-12-05T00:37:03.782Z,13.62
2018-12-05T00:39:33.030Z,14.70
2018-12-05T00:42:02.293Z,13.43
2018-12-05T00:44:31.550Z,14.25
2018-12-05T00:47:00.833Z,14.28
2018-12-05T00:49:30.374Z,13.43
2018-12-05T00:51:59.721Z,13.32
2018-12-05T00:54:28.962Z,12.65
2018-12-05T00:56:58.253Z,13.32
2018-12-05T00:59:27.534Z,13.55
2018-12-05T01:01:56.785Z,13.00
2018-12-05T01:04:26.106Z,11.35
2018-12-05T01:06:55.438Z,11.83
2018-12-05T01:09:24.715Z,12.15
2018-12-05T01:11:54.372Z,12.63
2018-12-05T01:14:23.628Z,10.60
2018-12-05T01:16:52.877Z,11.70
2018-12-05T01:19:22.113Z,11.48
2018-12-05T01:21:51.376Z,11.10
2018-12-05T01:24:20.858Z,10.63
2018-12-05T01:26:50.216Z,11.45
2018-12-05T01:29:19.765Z,9.90
2018-12-05T01:31:49.012Z,10.75
2018-12-05T01:34:18.265Z,11.35
2018-12-05T01:36:47.518Z,9.58
2018-12-05T01:39:16.885Z,10.63
2018-12-05T01:41:46.126Z,10.00
2018-12-05T01:44:15.385Z,11.53
2018-12-05T01:46:44.753Z,11.20
2018-12-05T01:49:14.028Z,10.65
2018-12-05T01:51:43.279Z,11.75
2018-12-05T01:54:12.544Z,12.25
2018-12-05T01:56:41.819Z,12.73
2018-12-05T01:59:11.393Z,13.83
2018-12-05T02:01:40.753Z,13.70
2018-12-05T02:04:09.988Z,13.40
2018-12-05T02:06:39.248Z,13.20
2018-12-05T02:09:09.303Z,10.45
2018-12-05T02:11:38.766Z,13.65
2018-12-05T02:14:08.012Z,10.75
2018-12-05T02:16:37.359Z,11.33
2018-12-05T02:19:06.608Z,13.15
2018-12-05T02:21:35.866Z,11.65
2018-12-05T02:24:05.165Z,10.23
2018-12-05T02:26:34.430Z,10.50
2018-12-05T02:29:03.694Z,11.90
2018-12-05T02:31:33.904Z,10.25
2018-12-05T02:34:03.205Z,11.65
2018-12-05T02:36:32.445Z,11.60
2018-12-05T02:39:01.705Z,10.40
2018-12-05T02:41:30.971Z,11.00
2018-12-05T02:44:00.207Z,12.95
2018-12-05T02:46:29.462Z,10.88
2018-12-05T02:48:58.753Z,11.70
2018-12-05T02:51:28.001Z,12.30
2018-12-05T02:53:57.334Z,12.25
2018-12-05T02:56:26.581Z,12.20
2018-12-05T02:58:55.844Z,12.33
2018-12-05T03:01:25.122Z,13.65
2018-12-05T03:03:54.405Z,12.60
2018-12-05T03:06:23.669Z,14.20
2018-12-05T03:08:52.952Z,13.90
2018-12-05T03:11:22.400Z,14.20
2018-12-05T03:13:51.777Z,13.18
2018-12-05T03:16:21.038Z,12.53
2018-12-05T03:18:50.313Z,13.72
2018-12-05T03:21:19.646Z,13.43
2018-12-05T03:23:48.918Z,11.78
2018-12-05T03:26:18.256Z,12.20
2018-12-05T03:28:47.570Z,13.22
2018-12-05T03:31:16.836Z,13.03
2018-12-05T03:33:46.134Z,12.90
2018-12-05T03:36:15.389Z,12.70
2018-12-05T03:38:44.653Z,13.00
2018-12-05T03:41:13.913Z,12.00
2018-12-05T03:43:43.229Z,12.40
2018-12-05T03:46:12.542Z,13.22
2018-12-05T03:48:41.790Z,13.28
2018-12-05T03:51:11.103Z,12.58
2018-12-05T03:53:40.462Z,12.03
2018-12-05T03:58:50.833Z,13.72
2018-12-05T04:01:20.121Z,11.28
2018-12-05T04:03:49.368Z,13.75
2018-12-05T04:06:18.636Z,11.60
2018-12-05T04:08:47.899Z,14.50
2018-12-05T04:11:17.173Z,13.45
2018-12-05T04:13:46.471Z,13.00
2018-12-05T04:16:15.744Z,14.60
2018-12-05T04:18:45.016Z,14.47
2018-12-05T04:21:14.258Z,14.25
2018-12-05T04:23:43.502Z,16.00
2018-12-05T04:26:12.755Z,14.33
2018-12-05T04:28:42.012Z,14.13
2018-12-05T04:31:11.266Z,14.20
2018-12-05T04:33:40.520Z,15.58
2018-12-05T04:36:09.778Z,18.20
2018-12-05T04:38:39.153Z,12.98
2018-12-05T04:41:08.434Z,15.78
2018-12-05T04:43:37.714Z,12.65
2018-12-05T04:46:06.981Z,14.13
2018-12-05T04:48:36.268Z,12.95
2018-12-05T04:51:05.522Z,13.85
2018-12-05T04:53:34.860Z,12.60
2018-12-05T04:56:04.295Z,11.97
2018-12-05T04:58:33.646Z,11.95
2018-12-05T05:01:02.891Z,11.40
2018-12-05T05:03:32.166Z,10.93
2018-12-05T05:06:01.418Z,11.60
2018-12-05T05:08:30.744Z,11.85
2018-12-05T05:11:00.016Z,10.60
2018-12-05T05:13:29.379Z,10.70
2018-12-05T05:15:58.669Z,11.12
2018-12-05T05:18:27.909Z,10.35
2018-12-05T05:20:57.277Z,11.75
2018-12-05T05:23:26.591Z,10.80
2018-12-05T05:25:55.931Z,11.57
2018-12-05T05:28:25.213Z,12.05
2018-12-05T05:30:54.478Z,12.73
2018-12-05T05:33:23.719Z,12.60
2018-12-05T05:35:52.994Z,13.13
2018-12-05T05:38:22.269Z,12.37
2018-12-05T05:40:51.525Z,13.65
2018-12-05T05:43:20.784Z,12.82
2018-12-05T05:45:50.221Z,11.50
2018-12-05T05:48:19.473Z,12.18
2018-12-05T05:50:48.753Z,13.40
2018-12-05T05:53:18.073Z,13.43
2018-12-05T05:55:53.729Z,13.72
2018-12-05T05:58:22.981Z,12.35
2018-12-05T06:00:52.350Z,11.70
2018-12-05T06:03:21.680Z,11.70
2018-12-05T06:05:50.918Z,13.10
2018-12-05T06:08:20.200Z,12.80
2018-12-05T06:10:49.456Z,12.98
2018-12-05T06:13:18.717Z,12.13
2018-12-05T06:15:47.992Z,11.57
2018-12-05T06:18:17.247Z,10.82
2018-12-05T06:20:46.582Z,12.03
2018-12-05T06:23:16.001Z,11.97
2018-12-05T06:25:45.258Z,12.73
2018-12-05T06:28:14.534Z,12.28
2018-12-05T06:30:43.825Z,13.38
2018-12-05T06:33:13.180Z,12.20
2018-12-05T06:35:42.484Z,12.70
2018-12-05T06:38:11.751Z,12.90
2018-12-05T06:40:41.103Z,13.00
2018-12-05T06:43:10.325Z,12.65
2018-12-05T06:45:39.613Z,12.73
2018-12-05T06:48:08.941Z,11.57
2018-12-05T06:50:38.234Z,10.82
2018-12-05T06:53:07.553Z,12.40
2018-12-05T06:55:39.314Z,13.70
2018-12-05T06:58:08.239Z,12.70
2018-12-05T07:00:37.550Z,12.10
2018-12-05T07:03:06.853Z,12.50
2018-12-05T07:05:36.161Z,11.78
2018-12-05T07:08:05.445Z,12.00
2018-12-05T07:10:34.731Z,11.25
2018-12-05T07:13:04.983Z,12.25
2018-12-05T07:15:34.392Z,11.90
2018-12-05T07:18:03.626Z,11.50
2018-12-05T07:20:32.943Z,11.30
2018-12-05T07:23:02.181Z,12.18
2018-12-05T07:25:31.426Z,12.70
2018-12-05T07:28:00.709Z,11.55
2018-12-05T07:30:29.993Z,12.37
2018-12-05T07:32:59.258Z,9.88
2018-12-05T07:35:28.710Z,11.20
2018-12-05T07:37:58.061Z,10.25
2018-12-05T07:40:27.347Z,10.82
2018-12-05T07:42:56.606Z,9.88
2018-12-05T07:45:25.877Z,9.70
2018-12-05T07:47:55.257Z,9.93
2018-12-05T07:50:24.536Z,9.35
2018-12-05T07:52:53.825Z,10.75
2018-12-05T07:55:23.109Z,9.70
2018-12-05T07:57:52.394Z,10.05
2018-12-05T08:00:21.957Z,10.15
2018-12-05T08:02:51.240Z,9.15
2018-12-05T08:05:20.577Z,9.85
2018-12-05T08:07:49.838Z,10.95
2018-12-05T08:10:19.079Z,9.93
2018-12-05T08:12:48.363Z,9.80
2018-12-05T08:15:17.609Z,9.33
2018-12-05T08:17:46.920Z,10.03
2018-12-05T08:20:16.220Z,10.23
2018-12-05T08:22:45.518Z,9.65
2018-12-05T08:25:14.775Z,9.70
2018-12-05T08:27:44.073Z,10.40
2018-12-05T08:30:13.342Z,10.05
2018-12-05T08:32:42.654Z,8.73
2018-12-05T08:35:11.993Z,9.48
2018-12-05T08:37:41.241Z,10.48
2018-12-05T08:40:10.663Z,9.18
2018-12-05T08:42:39.969Z,7.95
2018-12-05T08:45:09.318Z,7.80
2018-12-05T08:47:38.579Z,8.55
2018-12-05T08:50:07.860Z,8.75
2018-12-05T08:52:37.082Z,8.93
2018-12-05T08:55:06.825Z,8.35
2018-12-05T08:57:36.082Z,8.10
2018-12-05T09:00:06.722Z,8.60
2018-12-05T09:02:36.011Z,8.75
2018-12-05T09:05:05.777Z,8.88
2018-12-05T09:07:35.017Z,9.18
2018-12-05T09:10:04.729Z,7.40
2018-12-05T09:12:34.046Z,7.10
2018-12-05T09:15:03.315Z,7.60
2018-12-05T09:17:32.578Z,7.28
2018-12-05T09:20:01.814Z,8.15
2018-12-05T09:22:31.047Z,8.58
2018-12-05T09:25:00.359Z,6.35
2018-12-05T09:27:29.590Z,6.33
2018-12-05T09:29:58.842Z,5.95
2018-12-05T09:32:28.129Z,5.72
2018-12-05T09:34:57.385Z,7.70
2018-12-05T09:37:26.635Z,5.67
2018-12-05T09:39:55.878Z,5.05
2018-12-05T09:42:25.105Z,5.45
2018-12-05T09:44:54.350Z,4.67
2018-12-05T09:47:23.692Z,5.97
2018-12-05T09:49:52.938Z,4.78
2018-12-05T09:52:22.321Z,5.00
2018-12-05T09:54:51.567Z,5.50
2018-12-05T09:57:20.822Z,5.05
2018-12-05T09:59:50.065Z,4.50
2018-12-05T10:02:19.314Z,5.40
2018-12-05T10:04:48.646Z,5.30
2018-12-05T10:07:17.951Z,4.35
2018-12-05T10:09:47.195Z,3.83
2018-12-05T10:12:16.534Z,4.65
2018-12-05T10:14:45.860Z,4.47
2018-12-05T10:17:15.144Z,4.78
2018-12-05T10:19:44.554Z,4.00
2018-12-05T10:22:13.753Z,3.60
2018-12-05T10:24:42.990Z,4.50
2018-12-05T10:27:12.258Z,3.95
2018-12-05T10:29:41.472Z,5.15
2018-12-05T10:32:10.701Z,5.12
2018-12-05T10:34:39.945Z,5.33
2018-12-05T10:37:09.156Z,5.60
2018-12-05T10:39:38.475Z,5.30
2018-12-05T10:42:07.901Z,4.30
2018-12-05T10:44:37.270Z,4.72
2018-12-05T10:47:06.549Z,4.80
2018-12-05T10:49:35.785Z,4.85
2018-12-05T10:52:05.058Z,4.42
2018-12-05T10:54:34.324Z,3.75
2018-12-05T10:57:03.567Z,4.10
2018-12-05T10:59:33.637Z,4.20
2018-12-05T11:03:07.026Z,4.20
2018-12-05T11:05:41.738Z,4.53
2018-12-05T11:08:16.374Z,4.42
2018-12-05T11:10:50.882Z,4.87
2018-12-05T11:13:25.456Z,5.03
2018-12-05T11:15:59.985Z,4.78
2018-12-05T11:18:34.586Z,4.70
2018-12-05T11:21:09.041Z,5.60
2018-12-05T11:23:43.662Z,5.83
2018-12-05T11:26:17.798Z,4.30
2018-12-05T11:28:47.159Z,4.67
2018-12-05T11:31:16.492Z,4.60
2018-12-05T11:33:45.723Z,4.62
2018-12-05T11:36:15.045Z,3.90
2018-12-05T11:38:44.337Z,4.50
2018-12-05T11:41:13.578Z,5.05
2018-12-05T11:43:42.949Z,4.67
2018-12-05T11:46:12.211Z,4.60
2018-12-05T11:48:41.463Z,4.72
2018-12-05T11:51:10.736Z,3.92
2018-12-05T11:53:40.013Z,4.35
2018-12-05T11:56:09.290Z,4.47
2018-12-05T11:58:38.572Z,4.53
2018-12-05T12:01:08.097Z,5.03
2018-12-05T12:03:37.325Z,4.28
2018-12-05T12:06:06.768Z,4.30
2018-12-05T12:08:36.024Z,3.65
2018-12-05T12:11:05.551Z,3.85
2018-12-05T12:13:34.869Z,3.40
2018-12-05T12:16:04.494Z,3.52
2018-12-05T12:18:33.734Z,4.20
2018-12-05T12:21:03.046Z,4.28
2018-12-05T12:23:32.381Z,3.55
2018-12-05T12:26:01.654Z,3.52
2018-12-05T12:28:30.910Z,2.50
2018-12-05T12:31:00.217Z,4.22
2018-12-05T12:33:29.454Z,3.83
2018-12-05T12:35:58.877Z,4.30
2018-12-05T12:38:28.123Z,4.67
2018-12-05T12:40:57.381Z,4.62
2018-12-05T12:43:26.624Z,4.85
2018-12-05T12:45:55.862Z,5.17
2018-12-05T12:48:25.136Z,4.15
2018-12-05T12:50:54.433Z,4.45
2018-12-05T12:53:23.690Z,4.60
2018-12-05T12:55:53.049Z,5.00
2018-12-05T12:58:22.462Z,5.00
2018-12-05T13:00:51.703Z,5.25
2018-12-05T13:03:21.241Z,4.83
2018-12-05T13:05:50.572Z,5.42
2018-12-05T13:08:19.949Z,4.40
2018-12-05T13:10:49.185Z,5.37
2018-12-05T13:13:18.442Z,4.40
2018-12-05T13:15:47.662Z,4.55
2018-12-05T13:18:16.919Z,5.58
2018-12-05T13:20:46.141Z,5.33
2018-12-05T13:23:15.397Z,5.08
2018-12-05T13:25:44.628Z,4.70
2018-12-05T13:28:13.892Z,5.30
2018-12-05T13:30:43.208Z,5.28
2018-12-05T13:33:12.433Z,5.53
2018-12-05T13:35:41.694Z,5.03
2018-12-05T13:38:11.093Z,5.20
2018-12-05T13:40:40.381Z,5.78
2018-12-05T13:43:09.672Z,5.65
2018-12-05T13:45:38.967Z,5.30
2018-12-05T13:48:08.226Z,5.00
2018-12-05T13:50:37.451Z,4.27
2018-12-05T13:53:06.846Z,4.97
2018-12-05T13:58:15.453Z,5.12
2018-12-05T14:00:44.822Z,4.77
2018-12-05T14:03:14.123Z,4.20
2018-12-05T14:05:43.389Z,4.20
2018-12-05T14:08:12.906Z,4.40
2018-12-05T14:10:42.186Z,5.27
2018-12-05T14:13:11.448Z,4.17
2018-12-05T14:15:40.744Z,4.30
2018-12-05T14:18:10.019Z,5.03
2018-12-05T14:20:39.304Z,4.93
2018-12-05T14:23:08.561Z,5.47
2018-12-05T14:25:37.831Z,5.63
2018-12-05T14:28:07.233Z,5.67
2018-12-05T14:30:36.585Z,5.70
2018-12-05T14:33:05.858Z,4.85
2018-12-05T14:35:35.164Z,4.97
2018-12-05T14:38:04.435Z,6.50
2018-12-05T14:40:33.713Z,5.90
2018-12-05T14:43:03.007Z,6.60
2018-12-05T14:45:32.373Z,6.42
2018-12-05T14:48:01.770Z,6.67
2018-12-05T14:50:31.125Z,6.60
2018-12-05T14:53:00.497Z,5.62
2018-12-05T14:55:29.864Z,7.10
2018-12-05T14:57:59.140Z,7.20
2018-12-05T15:00:28.408Z,6.35
2018-12-05T15:02:57.696Z,10.10
2018-12-05T15:05:26.962Z,9.55
2018-12-05T15:07:56.232Z,9.78
2018-12-05T15:10:25.501Z,11.22
2018-12-05T15:12:54.785Z,9.50
2018-12-05T15:15:24.178Z,11.60
2018-12-05T15:17:53.457Z,10.78
2018-12-05T15:20:22.711Z,12.05
2018-12-05T15:22:51.990Z,11.00
2018-12-05T15:25:21.253Z,11.68
2018-12-05T15:27:50.695Z,10.72
2018-12-05T15:30:19.964Z,11.73
2018-12-05T15:32:49.234Z,11.95
2018-12-05T15:35:18.485Z,10.75
2018-12-05T15:37:47.752Z,11.90
2018-12-05T15:40:17.032Z,9.70
2018-12-05T15:42:46.445Z,11.28
2018-12-05T15:45:21.507Z,10.50
2018-12-05T15:47:46.982Z,10.32
2018-12-05T15:50:17.977Z,10.63
2018-12-05T15:52:47.481Z,11.30
2018-12-05T15:55:16.744Z,9.98
2018-12-05T15:57:45.977Z,9.80
2018-12-05T16:00:15.254Z,10.58
2018-12-05T16:02:44.622Z,9.43
2018-12-05T16:05:13.922Z,9.58
2018-12-05T16:07:43.262Z,9.50
2018-12-05T16:10:12.537Z,9.55
2018-12-05T16:12:41.782Z,8.90
2018-12-05T16:15:11.148Z,9.65
2018-12-05T16:17:40.397Z,9.20
2018-12-05T16:20:09.801Z,8.15
2018-12-05T16:22:39.087Z,10.08
2018-12-05T16:25:08.614Z,9.55
2018-12-05T16:27:37.853Z,8.18
2018-12-05T16:30:08.030Z,8.65
2018-12-05T16:32:37.305Z,7.70
2018-12-05T16:35:06.913Z,8.18
2018-12-05T16:37:36.194Z,7.55
2018-12-05T16:40:05.695Z,8.65
2018-12-05T16:42:34.988Z,7.37
2018-12-05T16:45:04.393Z,8.90
2018-12-05T16:47:33.715Z,8.55
2018-12-05T16:50:03.162Z,8.38
2018-12-05T16:52:32.437Z,7.25
2018-12-05T16:55:01.875Z,8.40
2018-12-05T16:57:31.311Z,7.10
2018-12-05T17:00:00.602Z,7.95
2018-12-05T17:02:29.901Z,7.25
2018-12-05T17:04:59.251Z,6.70
2018-12-05T17:07:28.670Z,7.17
2018-12-05T17:09:58.061Z,7.58
2018-12-05T17:12:27.332Z,6.25
2018-12-05T17:14:56.930Z,6.40
2018-12-05T17:17:26.214Z,6.90
2018-12-05T17:19:55.483Z,6.70
2018-12-05T17:22:24.774Z,7.28
2018-12-05T17:24:55.539Z,7.17
2018-12-05T17:27:24.999Z,6.53
2018-12-05T17:29:54.261Z,6.72
2018-12-05T17:32:23.613Z,6.67
2018-12-05T17:34:52.904Z,6.80
2018-12-05T17:37:22.186Z,8.50
2018-12-05T17:39:51.488Z,7.08
2018-12-05T17:42:22.027Z,7.30
2018-12-05T17:44:51.485Z,7.50
2018-12-05T17:47:20.898Z,6.53
2018-12-05T17:49:50.369Z,6.58
2018-12-05T17:52:19.651Z,6.33
2018-12-05T17:54:48.894Z,6.20
2018-12-05T17:57:18.124Z,6.55
2018-12-05T17:59:47.410Z,7.12
2018-12-05T18:02:16.657Z,6.85
2018-12-05T18:04:45.908Z,6.95
2018-12-05T18:07:15.291Z,6.87
2018-12-05T18:09:44.560Z,7.03
2018-12-05T18:12:13.805Z,7.03
2018-12-05T18:14:43.097Z,7.45
2018-12-05T18:17:12.377Z,7.15
2018-12-05T18:19:41.697Z,6.58
2018-12-05T18:22:10.982Z,7.80
2018-12-05T18:24:40.283Z,7.72
2018-12-05T18:27:09.574Z,6.72
2018-12-05T18:29:38.871Z,6.72
2018-12-05T18:32:08.175Z,7.20
2018-12-05T18:34:37.489Z,6.45
2018-12-05T18:37:07.011Z,6.42
2018-12-05T18:39:36.294Z,6.60
2018-12-05T18:42:05.641Z,6.40
2018-12-05T18:44:34.879Z,6.15
2018-12-05T18:47:04.250Z,6.28
2018-12-05T18:49:33.499Z,7.70
2018-12-05T18:52:02.781Z,6.65
2018-12-05T18:54:32.033Z,7.80
2018-12-05T18:57:01.396Z,6.87
2018-12-05T18:59:32.757Z,8.18
2018-12-05T19:02:02.066Z,7.28
2018-12-05T19:04:31.365Z,6.97
2018-12-05T19:07:00.668Z,8.15
2018-12-05T19:09:29.970Z,7.70
2018-12-05T19:11:59.409Z,9.00
2018-12-05T19:14:33.842Z,11.97
2018-12-05T19:17:03.165Z,13.48
2018-12-05T19:19:32.489Z,10.10
2018-12-05T19:22:01.818Z,7.72
2018-12-05T19:24:31.074Z,8.33
2018-12-05T19:27:00.413Z,8.65
2018-12-05T19:29:29.858Z,8.00
2018-12-05T19:31:59.095Z,8.75
2018-12-05T19:34:28.420Z,8.98
2018-12-05T19:36:57.750Z,8.35
2018-12-05T19:39:27.088Z,7.45
2018-12-05T19:41:56.353Z,7.60
2018-12-05T19:44:25.677Z,8.73
2018-12-05T19:46:54.924Z,8.93
2018-12-05T19:49:24.195Z,8.85
2018-12-05T19:51:53.484Z,10.38
2018-12-05T19:54:22.801Z,9.43
2018-12-05T19:56:52.078Z,8.65
2018-12-05T19:59:21.386Z,10.50
2018-12-05T20:01:50.648Z,9.90
2018-12-05T20:04:20.054Z,9.68
2018-12-05T20:06:49.352Z,8.70
2018-12-05T20:09:18.655Z,9.00
2018-12-05T20:11:47.969Z,9.15
2018-12-05T20:14:22.462Z,8.98
2018-12-05T20:16:51.712Z,8.75
2018-12-05T20:19:20.984Z,9.35
2018-12-05T20:21:50.360Z,9.28
2018-12-05T20:24:19.630Z,9.43
2018-12-05T20:26:48.923Z,11.03
2018-12-05T20:29:18.219Z,10.75
2018-12-05T20:31:47.622Z,9.35
2018-12-05T20:34:16.903Z,9.65
2018-12-05T20:36:46.336Z,9.18
2018-12-05T20:39:15.630Z,9.65
2018-12-05T20:41:44.973Z,9.60
2018-12-05T20:44:14.241Z,10.65
2018-12-05T20:46:43.532Z,9.93
2018-12-05T20:49:12.840Z,10.40
2018-12-05T20:51:42.123Z,10.03
2018-12-05T20:54:11.419Z,10.08
2018-12-05T20:56:40.720Z,11.28
2018-12-05T20:59:10.113Z,11.22
2018-12-05T21:01:39.469Z,9.90
2018-12-05T21:04:08.952Z,11.12
2018-12-05T21:06:38.233Z,10.30
2018-12-05T21:09:09.054Z,10.30
2018-12-05T21:11:39.449Z,10.60
2018-12-05T21:14:09.124Z,10.05
2018-12-05T21:16:38.562Z,9.18
2018-12-05T21:19:07.972Z,9.48
2018-12-05T21:21:37.279Z,9.88
2018-12-05T21:24:08.226Z,10.65
2018-12-05T21:26:37.762Z,16.25
2018-12-05T21:29:07.110Z,13.72
2018-12-05T21:31:36.380Z,10.23
2018-12-05T21:34:05.694Z,9.80
2018-12-05T21:36:35.072Z,10.00
2018-12-05T21:39:07.379Z,9.45
2018-12-05T21:41:37.014Z,9.15
2018-12-05T21:44:06.375Z,11.68
2018-12-05T21:46:35.645Z,11.97
2018-12-05T21:49:05.109Z,10.30
2018-12-05T21:51:34.451Z,12.58
2018-12-05T21:54:03.952Z,12.13
2018-12-05T21:56:33.391Z,11.95
2018-12-05T21:59:02.762Z,10.65
2018-12-05T22:01:32.052Z,11.25
2018-12-05T22:04:01.402Z,13.00
2018-12-05T22:06:30.724Z,11.45
2018-12-05T22:09:00.003Z,11.78
2018-12-05T22:11:29.356Z,12.65
2018-12-05T22:13:58.596Z,10.08
2018-12-05T22:16:27.907Z,11.40
2018-12-05T22:18:57.313Z,9.40
2018-12-05T22:21:26.620Z,10.25
2018-12-05T22:23:55.945Z,9.73
2018-12-05T22:26:25.464Z,11.73
2018-12-05T22:28:54.718Z,11.05
2018-12-05T22:31:24.021Z,10.20
2018-12-05T22:33:53.307Z,10.15
2018-12-05T22:36:22.572Z,10.65
2018-12-05T22:38:51.807Z,10.53
2018-12-05T22:41:21.086Z,10.78
2018-12-05T22:43:50.360Z,7.78
2018-12-05T22:46:19.807Z,8.48
2018-12-05T22:48:49.110Z,8.28
2018-12-05T22:51:18.404Z,9.73
2018-12-05T22:53:47.676Z,9.00
2018-12-05T22:56:16.967Z,8.95
2018-12-05T22:58:46.248Z,7.80
2018-12-05T23:01:15.545Z,8.45
2018-12-05T23:03:44.840Z,10.05
2018-12-05T23:06:14.093Z,9.98
2018-12-05T23:08:43.458Z,8.90
2018-12-05T23:11:12.746Z,8.05
2018-12-05T23:13:42.029Z,8.73
2018-12-05T23:16:11.335Z,8.00
2018-12-05T23:18:40.661Z,9.70
2018-12-05T23:21:10.023Z,9.48
2018-12-05T23:23:39.293Z,8.93
2018-12-05T23:26:08.573Z,7.75
2018-12-05T23:28:37.830Z,8.43
2018-12-05T23:31:07.081Z,8.98
2018-12-05T23:33:36.389Z,9.45
2018-12-05T23:36:05.673Z,9.40
2018-12-05T23:38:34.937Z,8.60
2018-12-05T23:41:04.241Z,10.10
2018-12-05T23:43:33.494Z,8.10
2018-12-05T23:46:02.905Z,8.13
2018-12-05T23:48:32.136Z,8.83
2018-12-05T23:51:01.445Z,8.23
2018-12-05T23:53:30.685Z,9.33
2018-12-05T23:55:59.953Z,8.98
2018-12-05T23:58:29.218Z,9.18
